Time;durP1;ratioP1;P1;durP2;ratioP2;P2;SDS_P1;SDS_P2;PMS_P1;PMS_P2;Temp;Humidity;BMP_temperature;BMP_pressure;BME280_temperature;BME280_humidity;BME280_pressure;Samples;Min_cycle;Max_cycle;Signal;HPM_P1;HPM_P2
2021/09/29 00:01:08;;;;;;;5.63;5.13;;;;;;;;;;5130262;27;24424;-60
2021/09/29 00:03:34;;;;;;;6.47;5.90;;;;;;;;;;5129813;27;24841;-60
2021/09/29 00:05:59;;;;;;;9.27;7.80;;;;;;;;;;5130147;27;24525;-60
2021/09/29 00:08:24;;;;;;;6.70;6.20;;;;;;;;;;5130286;27;24405;-59
2021/09/29 00:10:49;;;;;;;6.20;5.70;;;;;;;;;;5130032;27;24504;-60
2021/09/29 00:13:14;;;;;;;6.90;6.30;;;;;;;;;;5130422;27;24470;-60
2021/09/29 00:15:39;;;;;;;5.53;5.13;;;;;;;;;;5126427;27;24508;-60
2021/09/29 00:18:04;;;;;;;6.17;5.10;;;;;;;;;;5127449;27;24960;-60
2021/09/29 00:20:30;;;;;;;5.80;5.30;;;;;;;;;;5129098;27;24479;-60
2021/09/29 00:22:55;;;;;;;5.73;5.33;;;;;;;;;;5110396;27;24424;-60
2021/09/29 00:25:20;;;;;;;5.80;5.30;;;;;;;;;;5129391;27;24445;-60
2021/09/29 00:27:45;;;;;;;5.47;5.07;;;;;;;;;;5130208;27;24850;-60
2021/09/29 00:30:11;;;;;;;5.30;4.90;;;;;;;;;;5130064;27;24979;-60
2021/09/29 00:32:40;;;;;;;5.40;4.90;;;;;;;;;;5128336;27;24512;-59
2021/09/29 00:35:05;;;;;;;6.70;5.60;;;;;;;;;;5129588;27;24413;-60
2021/09/29 00:37:31;;;;;;;5.40;5.00;;;;;;;;;;5130153;27;24462;-60
2021/09/29 00:39:56;;;;;;;6.30;5.70;;;;;;;;;;5129564;27;24413;-60
2021/09/29 00:42:21;;;;;;;5.20;4.80;;;;;;;;;;5127171;27;24985;-60
2021/09/29 00:44:47;;;;;;;5.70;5.20;;;;;;;;;;5128191;27;24987;-60
2021/09/29 00:47:12;;;;;;;5.75;5.25;;;;;;;;;;5128793;27;25017;-61
2021/09/29 00:49:37;;;;;;;5.60;5.10;;;;;;;;;;5129789;27;24408;-60
2021/09/29 00:52:02;;;;;;;5.40;5.00;;;;;;;;;;5129407;27;24405;-60
2021/09/29 00:54:29;;;;;;;5.77;5.27;;;;;;;;;;5126230;27;24421;-60
2021/09/29 00:56:55;;;;;;;6.43;5.93;;;;;;;;;;5128749;27;24428;-60
2021/09/29 00:59:20;;;;;;;6.40;5.80;;;;;;;;;;5128919;27;24982;-60
2021/09/29 01:01:46;;;;;;;7.15;6.55;;;;;;;;;;5127054;27;24409;-60
2021/09/29 01:04:11;;;;;;;6.73;6.23;;;;;;;;;;5129467;27;24424;-60
2021/09/29 01:06:39;;;;;;;8.37;7.20;;;;;;;;;;5129377;27;24431;-60
2021/09/29 01:09:08;;;;;;;6.75;6.25;;;;;;;;;;5113937;27;24566;-60
2021/09/29 01:11:50;;;;;;;6.30;5.80;;;;;;;;;;5123990;27;24513;-59
2021/09/29 01:14:18;;;;;;;7.80;7.03;;;;;;;;;;5127428;27;24424;-60
2021/09/29 01:16:46;;;;;;;8.48;7.57;;;;;;;;;;5127819;27;25065;-60
2021/09/29 01:19:16;;;;;;;6.18;5.68;;;;;;;;;;5129155;27;24412;-60
2021/09/29 01:21:48;;;;;;;6.80;6.20;;;;;;;;;;5121813;27;24421;-60
2021/09/29 01:24:19;;;;;;;7.80;7.10;;;;;;;;;;5129242;27;24405;-61
2021/09/29 01:26:45;;;;;;;8.10;7.40;;;;;;;;;;5120405;27;25062;-61
2021/09/29 01:29:14;;;;;;;8.27;7.65;;;;;;;;;;5118534;27;24546;-61
2021/09/29 01:31:39;;;;;;;8.13;7.43;;;;;;;;;;5128337;27;24421;-61
2021/09/29 01:34:05;;;;;;;6.80;6.20;;;;;;;;;;5128983;27;24447;-61
2021/09/29 01:36:31;;;;;;;8.07;7.38;;;;;;;;;;5127777;27;24413;-61
2021/09/29 01:38:57;;;;;;;8.90;8.10;;;;;;;;;;5126232;27;24868;-61
2021/09/29 01:41:24;;;;;;;9.18;8.27;;;;;;;;;;5128703;27;24407;-60
2021/09/29 01:43:49;;;;;;;7.90;7.20;;;;;;;;;;5126983;27;24473;-61
2021/09/29 01:46:15;;;;;;;6.73;6.20;;;;;;;;;;5128912;27;24394;-61
2021/09/29 01:48:45;;;;;;;6.90;6.30;;;;;;;;;;5127950;27;24437;-60
2021/09/29 01:51:11;;;;;;;7.97;7.22;;;;;;;;;;5124559;27;24424;-62
2021/09/29 01:53:36;;;;;;;7.70;7.00;;;;;;;;;;5128390;27;24421;-61
2021/09/29 01:56:01;;;;;;;7.20;6.60;;;;;;;;;;5126894;27;24826;-60
2021/09/29 01:58:30;;;;;;;6.73;6.13;;;;;;;;;;5128732;27;24799;-61
2021/09/29 02:00:55;;;;;;;6.53;5.82;;;;;;;;;;5128035;27;24409;-61
2021/09/29 02:03:21;;;;;;;7.00;6.40;;;;;;;;;;5127965;27;24420;-61
2021/09/29 02:05:47;;;;;;;6.82;6.22;;;;;;;;;;5125724;27;24968;-61
2021/09/29 02:08:12;;;;;;;7.00;6.40;;;;;;;;;;5128729;27;24948;-62
2021/09/29 02:10:37;;;;;;;6.07;5.60;;;;;;;;;;5126275;27;24415;-60
2021/09/29 02:13:03;;;;;;;7.17;6.57;;;;;;;;;;5120611;27;24443;-60
2021/09/29 02:15:28;;;;;;;7.57;6.87;;;;;;;;;;5113757;27;24413;-60
2021/09/29 02:17:53;;;;;;;7.93;7.13;;;;;;;;;;5117284;27;24447;-61
2021/09/29 02:20:19;;;;;;;7.80;7.10;;;;;;;;;;5128296;27;24929;-61
2021/09/29 02:22:44;;;;;;;8.27;7.50;;;;;;;;;;5128393;27;24944;-60
2021/09/29 02:25:10;;;;;;;8.40;7.70;;;;;;;;;;5127665;27;24421;-60
2021/09/29 02:27:35;;;;;;;8.13;7.43;;;;;;;;;;5128218;27;24543;-61
2021/09/29 02:30:01;;;;;;;8.30;7.60;;;;;;;;;;5127821;27;24512;-60
2021/09/29 02:32:26;;;;;;;8.90;8.10;;;;;;;;;;5127903;27;25066;-60
2021/09/29 02:34:51;;;;;;;7.72;7.13;;;;;;;;;;5127323;27;24468;-61
2021/09/29 02:37:16;;;;;;;7.88;7.28;;;;;;;;;;5126797;27;24409;-60
2021/09/29 02:39:41;;;;;;;7.55;6.95;;;;;;;;;;5127774;27;24401;-61
2021/09/29 02:42:07;;;;;;;6.70;6.10;;;;;;;;;;5124201;27;24968;-61
2021/09/29 02:44:32;;;;;;;6.53;6.03;;;;;;;;;;5117580;27;24432;-60
2021/09/29 02:46:57;;;;;;;6.70;6.20;;;;;;;;;;5127983;27;24401;-61
2021/09/29 02:49:22;;;;;;;8.50;7.70;;;;;;;;;;5127447;27;24424;-61
2021/09/29 02:51:48;;;;;;;8.77;8.00;;;;;;;;;;5127487;27;24566;-61
2021/09/29 02:54:13;;;;;;;10.40;9.40;;;;;;;;;;5121915;27;24518;-61
2021/09/29 02:56:38;;;;;;;8.50;7.80;;;;;;;;;;5127644;27;24398;-62
2021/09/29 02:59:04;;;;;;;9.90;8.95;;;;;;;;;;5127091;27;24410;-62
2021/09/29 03:01:30;;;;;;;13.10;11.70;;;;;;;;;;5127668;28;24400;-62
2021/09/29 03:03:55;;;;;;;12.63;11.40;;;;;;;;;;5126478;28;24417;-62
2021/09/29 03:06:20;;;;;;;12.53;11.30;;;;;;;;;;5127514;27;24993;-62
2021/09/29 03:08:45;;;;;;;10.73;9.63;;;;;;;;;;5126750;28;25049;-62
2021/09/29 03:11:10;;;;;;;10.63;9.52;;;;;;;;;;5127692;27;24437;-62
2021/09/29 03:13:36;;;;;;;13.23;11.83;;;;;;;;;;5127499;28;24490;-60
2021/09/29 03:16:01;;;;;;;11.37;10.27;;;;;;;;;;5126361;28;24449;-61
2021/09/29 03:18:26;;;;;;;15.37;13.77;;;;;;;;;;5126667;28;24516;-60
2021/09/29 03:20:51;;;;;;;18.52;16.00;;;;;;;;;;5127441;27;24507;-60
2021/09/29 03:23:17;;;;;;;14.77;13.30;;;;;;;;;;5126804;28;24776;-60
2021/09/29 03:25:42;;;;;;;14.07;12.77;;;;;;;;;;5119269;28;24443;-60
2021/09/29 03:28:07;;;;;;;14.40;13.10;;;;;;;;;;5126622;28;24830;-60
2021/09/29 03:30:32;;;;;;;12.40;11.20;;;;;;;;;;5126479;27;25264;-60
2021/09/29 03:32:57;;;;;;;17.60;15.90;;;;;;;;;;5125233;28;24444;-59
2021/09/29 03:35:24;;;;;;;15.50;14.00;;;;;;;;;;5126756;28;25205;-58
2021/09/29 03:37:49;;;;;;;16.27;14.68;;;;;;;;;;5122420;28;25835;-60
2021/09/29 03:40:15;;;;;;;14.63;13.20;;;;;;;;;;5126889;27;24952;-60
2021/09/29 03:42:40;;;;;;;14.30;12.90;;;;;;;;;;5125799;28;24496;-59
2021/09/29 03:45:06;;;;;;;17.10;15.30;;;;;;;;;;5126384;28;25034;-60
2021/09/29 03:47:32;;;;;;;15.90;14.20;;;;;;;;;;5126888;28;24413;-60
2021/09/29 03:49:57;;;;;;;14.45;13.05;;;;;;;;;;5126435;28;24412;-60
2021/09/29 03:52:22;;;;;;;16.33;14.73;;;;;;;;;;5119039;28;24469;-60
2021/09/29 03:54:48;;;;;;;16.50;14.90;;;;;;;;;;5126046;28;24405;-61
2021/09/29 03:57:13;;;;;;;18.65;16.75;;;;;;;;;;5126948;28;24466;-60
2021/09/29 03:59:38;;;;;;;19.13;17.23;;;;;;;;;;5127021;28;24793;-60
2021/09/29 04:02:04;;;;;;;17.00;15.30;;;;;;;;;;5127056;28;24983;-60
2021/09/29 04:04:29;;;;;;;16.55;14.95;;;;;;;;;;5124783;28;24457;-60
2021/09/29 04:06:55;;;;;;;19.27;17.38;;;;;;;;;;5127851;27;24820;-60
2021/09/29 04:09:20;;;;;;;20.25;18.25;;;;;;;;;;5129857;27;24405;-59
2021/09/29 04:11:45;;;;;;;15.35;13.85;;;;;;;;;;5131198;27;24426;-59
2021/09/29 04:14:10;;;;;;;13.98;12.68;;;;;;;;;;5130062;27;24897;-59
2021/09/29 04:16:35;;;;;;;14.73;13.32;;;;;;;;;;5129639;27;24439;-59
2021/09/29 04:19:01;;;;;;;16.77;15.10;;;;;;;;;;5114500;27;24918;-60
2021/09/29 04:21:26;;;;;;;16.00;14.50;;;;;;;;;;5128021;27;24420;-60
2021/09/29 04:23:51;;;;;;;18.00;16.10;;;;;;;;;;5123803;27;24408;-60
2021/09/29 04:26:36;;;;;;;17.80;16.00;;;;;;;;;;5123488;27;25006;-60
2021/09/29 04:29:01;;;;;;;17.60;15.90;;;;;;;;;;5081280;27;25027;-60
2021/09/29 04:31:26;;;;;;;16.85;15.20;;;;;;;;;;5121011;27;24871;-60
2021/09/29 04:33:51;;;;;;;16.30;14.80;;;;;;;;;;5119202;27;25022;-60
2021/09/29 04:36:16;;;;;;;16.00;14.50;;;;;;;;;;5126838;27;24413;-60
2021/09/29 04:38:41;;;;;;;15.00;13.70;;;;;;;;;;5125760;27;24441;-60
2021/09/29 04:41:08;;;;;;;14.45;13.05;;;;;;;;;;5119943;27;24437;-60
2021/09/29 04:43:33;;;;;;;13.90;12.60;;;;;;;;;;5110292;27;24418;-60
2021/09/29 04:45:59;;;;;;;14.20;12.90;;;;;;;;;;5119353;27;24433;-59
2021/09/29 04:48:24;;;;;;;15.40;14.00;;;;;;;;;;5122922;27;24424;-60
2021/09/29 04:50:49;;;;;;;14.60;13.20;;;;;;;;;;5112875;27;24438;-60
2021/09/29 04:53:14;;;;;;;16.70;15.07;;;;;;;;;;5115378;27;24426;-60
2021/09/29 04:55:39;;;;;;;15.50;14.00;;;;;;;;;;5121238;27;24830;-61
2021/09/29 04:58:05;;;;;;;13.93;12.63;;;;;;;;;;5120397;27;24492;-60
2021/09/29 05:00:31;;;;;;;13.07;11.87;;;;;;;;;;5125121;27;24819;-60
2021/09/29 05:02:56;;;;;;;13.67;12.37;;;;;;;;;;5122043;27;24521;-60
2021/09/29 05:05:22;;;;;;;12.77;11.57;;;;;;;;;;5124337;27;24537;-60
2021/09/29 05:07:49;;;;;;;12.90;11.70;;;;;;;;;;5110541;27;24789;-60
2021/09/29 05:10:15;;;;;;;14.10;12.80;;;;;;;;;;5115987;27;24413;-60
2021/09/29 05:12:41;;;;;;;14.60;13.30;;;;;;;;;;5125257;27;24440;-60
2021/09/29 05:15:06;;;;;;;16.70;15.20;;;;;;;;;;5121524;27;24425;-59
2021/09/29 05:17:31;;;;;;;14.80;13.40;;;;;;;;;;5116740;27;24470;-60
2021/09/29 05:19:56;;;;;;;14.70;13.40;;;;;;;;;;5112168;27;24421;-59
2021/09/29 05:22:21;;;;;;;14.20;12.90;;;;;;;;;;5115994;27;24481;-59
2021/09/29 05:24:47;;;;;;;13.50;12.20;;;;;;;;;;5114702;27;24405;-59
2021/09/29 05:27:12;;;;;;;13.00;11.90;;;;;;;;;;5121993;27;24473;-61
2021/09/29 05:29:38;;;;;;;14.40;13.10;;;;;;;;;;5123522;27;24397;-59
2021/09/29 05:32:04;;;;;;;14.02;12.82;;;;;;;;;;5123428;27;24846;-59
2021/09/29 05:34:29;;;;;;;14.37;13.07;;;;;;;;;;5121477;27;25150;-59
2021/09/29 05:36:54;;;;;;;16.00;14.60;;;;;;;;;;5119186;27;24508;-59
2021/09/29 05:39:19;;;;;;;13.53;12.33;;;;;;;;;;5121483;27;24458;-59
2021/09/29 05:41:44;;;;;;;15.30;13.90;;;;;;;;;;5125152;27;24912;-59
2021/09/29 05:44:10;;;;;;;14.48;13.20;;;;;;;;;;5125241;27;24392;-64
2021/09/29 05:46:35;;;;;;;14.20;13.00;;;;;;;;;;5122839;27;24462;-61
2021/09/29 05:49:00;;;;;;;14.43;13.13;;;;;;;;;;5121317;27;25084;-62
2021/09/29 05:51:25;;;;;;;15.10;13.70;;;;;;;;;;5121426;27;24926;-61
2021/09/29 05:53:50;;;;;;;14.40;13.10;;;;;;;;;;5119533;27;24417;-61
2021/09/29 05:56:16;;;;;;;13.73;12.53;;;;;;;;;;5122941;27;24789;-61
2021/09/29 05:58:41;;;;;;;14.30;13.00;;;;;;;;;;5123093;27;24432;-61
2021/09/29 06:01:07;;;;;;;16.67;15.07;;;;;;;;;;5124711;27;24533;-61
2021/09/29 06:03:32;;;;;;;15.32;13.93;;;;;;;;;;5120303;27;24400;-61
2021/09/29 06:05:57;;;;;;;15.23;13.83;;;;;;;;;;5119065;27;24413;-62
2021/09/29 06:08:23;;;;;;;14.50;13.20;;;;;;;;;;5120363;27;24413;-61
2021/09/29 06:10:48;;;;;;;14.10;12.90;;;;;;;;;;5119648;27;24474;-61
2021/09/29 06:13:14;;;;;;;14.10;12.90;;;;;;;;;;5126004;27;24514;-61
2021/09/29 06:15:44;;;;;;;13.90;12.70;;;;;;;;;;5122503;27;24411;-61
2021/09/29 06:18:15;;;;;;;14.07;12.77;;;;;;;;;;5121853;27;24444;-61
2021/09/29 06:20:48;;;;;;;13.90;12.70;;;;;;;;;;5114470;27;24437;-61
2021/09/29 06:23:13;;;;;;;14.82;13.43;;;;;;;;;;5122752;27;24943;-61
2021/09/29 06:25:38;;;;;;;15.53;14.13;;;;;;;;;;5123219;27;25140;-61
2021/09/29 06:28:04;;;;;;;17.98;16.38;;;;;;;;;;5123917;27;24470;-61
2021/09/29 06:30:29;;;;;;;18.20;16.50;;;;;;;;;;5125040;27;24473;-61
2021/09/29 06:32:54;;;;;;;14.23;13.03;;;;;;;;;;5124920;27;24451;-61
2021/09/29 06:35:19;;;;;;;14.70;13.30;;;;;;;;;;5124348;27;24748;-61
2021/09/29 06:37:46;;;;;;;15.93;14.53;;;;;;;;;;5124406;27;24416;-61
2021/09/29 06:40:13;;;;;;;17.43;15.83;;;;;;;;;;5124577;27;24413;-61
2021/09/29 06:42:38;;;;;;;19.83;18.13;;;;;;;;;;5124450;27;24505;-61
2021/09/29 06:45:04;;;;;;;19.00;17.30;;;;;;;;;;5124803;27;24744;-61
2021/09/29 06:47:29;;;;;;;18.83;17.02;;;;;;;;;;5123723;27;24452;-61
2021/09/29 06:49:55;;;;;;;16.23;14.88;;;;;;;;;;5120740;27;24839;-61
2021/09/29 06:52:20;;;;;;;17.83;16.25;;;;;;;;;;5126906;27;24416;-61
2021/09/29 06:54:45;;;;;;;16.23;14.83;;;;;;;;;;5126565;27;24479;-61
2021/09/29 06:57:10;;;;;;;20.30;18.40;;;;;;;;;;5125565;27;24420;-61
2021/09/29 06:59:35;;;;;;;17.40;15.90;;;;;;;;;;5122736;27;24726;-61
2021/09/29 07:02:01;;;;;;;17.27;15.77;;;;;;;;;;5100901;27;24417;-61
2021/09/29 07:04:26;;;;;;;20.08;18.27;;;;;;;;;;5121507;27;25020;-62
2021/09/29 07:06:52;;;;;;;19.88;18.08;;;;;;;;;;5122657;27;24393;-61
2021/09/29 07:09:17;;;;;;;21.20;19.30;;;;;;;;;;5123472;28;24405;-61
2021/09/29 07:11:42;;;;;;;19.80;17.90;;;;;;;;;;5120159;28;24409;-61
2021/09/29 07:14:07;;;;;;;18.17;16.57;;;;;;;;;;5119480;28;24432;-61
2021/09/29 07:16:32;;;;;;;19.98;18.15;;;;;;;;;;5119983;28;24417;-62
2021/09/29 07:19:02;;;;;;;21.90;19.85;;;;;;;;;;5123465;28;24421;-61
2021/09/29 07:21:27;;;;;;;17.47;15.97;;;;;;;;;;5123819;28;24511;-61
2021/09/29 07:23:52;;;;;;;20.40;18.50;;;;;;;;;;5118078;28;24506;-62
2021/09/29 07:26:17;;;;;;;19.52;17.73;;;;;;;;;;5118137;28;24420;-61
2021/09/29 07:28:43;;;;;;;21.50;19.50;;;;;;;;;;5119181;28;24976;-62
2021/09/29 07:31:08;;;;;;;19.27;17.58;;;;;;;;;;5123784;28;24744;-61
2021/09/29 07:33:35;;;;;;;18.75;17.05;;;;;;;;;;5121510;28;24432;-61
2021/09/29 07:36:00;;;;;;;19.77;17.98;;;;;;;;;;5119934;28;24400;-60
2021/09/29 07:38:28;;;;;;;20.90;19.00;;;;;;;;;;5119602;28;24417;-60
2021/09/29 07:40:53;;;;;;;20.00;18.10;;;;;;;;;;5119962;27;24440;-61
2021/09/29 07:43:19;;;;;;;22.03;20.03;;;;;;;;;;5127320;27;25196;-60
2021/09/29 07:45:44;;;;;;;22.83;20.73;;;;;;;;;;5125712;27;24429;-60
2021/09/29 07:48:09;;;;;;;23.20;21.10;;;;;;;;;;5124823;27;24504;-61
2021/09/29 07:50:34;;;;;;;22.17;20.13;;;;;;;;;;5123964;27;24391;-59
2021/09/29 07:53:00;;;;;;;25.40;23.00;;;;;;;;;;5122148;27;24440;-60
2021/09/29 07:55:25;;;;;;;26.77;24.37;;;;;;;;;;5125604;27;24932;-60
2021/09/29 07:57:50;;;;;;;25.27;23.07;;;;;;;;;;5126486;27;24504;-61
2021/09/29 08:00:16;;;;;;;24.77;22.58;;;;;;;;;;5127395;27;24449;-60
2021/09/29 08:02:41;;;;;;;24.30;22.10;;;;;;;;;;5123560;27;25016;-60
2021/09/29 08:05:07;;;;;;;24.58;22.33;;;;;;;;;;5121552;27;24453;-61
2021/09/29 08:07:32;;;;;;;24.27;21.97;;;;;;;;;;5121626;27;24446;-61
2021/09/29 08:09:57;;;;;;;24.85;22.55;;;;;;;;;;5125989;27;24409;-64
2021/09/29 08:12:22;;;;;;;25.90;23.50;;;;;;;;;;5127194;27;24497;-61
2021/09/29 08:14:48;;;;;;;25.30;23.00;;;;;;;;;;5125242;27;24446;-61
2021/09/29 08:17:13;;;;;;;25.40;23.10;;;;;;;;;;5127178;27;24389;-62
2021/09/29 08:19:38;;;;;;;22.07;20.07;;;;;;;;;;5121069;27;24448;-61
2021/09/29 08:22:06;;;;;;;20.63;18.73;;;;;;;;;;5121544;27;24465;-61
2021/09/29 08:24:44;;;;;;;20.05;18.35;;;;;;;;;;5125557;27;24442;-60
2021/09/29 08:32:08;;;;;;;19.70;17.90;;;;;;;;;;5124765;27;25003;-61
2021/09/29 08:34:39;;;;;;;23.55;21.27;;;;;;;;;;5122734;27;24468;-61
2021/09/29 08:37:51;;;;;;;21.60;19.70;;;;;;;;;;5123375;27;24507;-61
2021/09/29 08:39:59;;;;;;;24.17;21.88;;;;;;;;;;5117842;27;24752;-61
2021/09/29 08:42:34;;;;;;;23.42;21.13;;;;;;;;;;5126575;27;24397;-61
2021/09/29 08:45:03;;;;;;;24.92;22.52;;;;;;;;;;5125739;27;24960;-61
2021/09/29 08:47:50;;;;;;;23.88;21.63;;;;;;;;;;5122854;27;24481;-61
2021/09/29 08:53:44;;;;;;;24.23;21.83;;;;;;;;;;5122524;27;24949;-61
2021/09/29 08:55:49;;;;;;;23.23;20.92;;;;;;;;;;5106117;27;24516;-61
2021/09/29 09:15:21;;;;;;;28.38;25.77;;;;;;;;;;5067469;27;24519;-59
2021/09/29 09:17:45;;;;;;;26.15;23.75;;;;;;;;;;5123237;27;24404;-59
2021/09/29 09:20:22;;;;;;;29.23;26.53;;;;;;;;;;5120022;27;24400;-59
2021/09/29 09:22:51;;;;;;;29.00;26.30;;;;;;;;;;5120105;27;24378;-59
2021/09/29 09:25:17;;;;;;;27.30;24.80;;;;;;;;;;5123361;27;24970;-59
2021/09/29 09:27:43;;;;;;;30.50;27.70;;;;;;;;;;5125261;27;24437;-61
2021/09/29 09:30:09;;;;;;;28.35;25.73;;;;;;;;;;5125161;27;24389;-62
2021/09/29 09:32:41;;;;;;;27.38;24.83;;;;;;;;;;5123799;27;24454;-61
2021/09/29 09:35:09;;;;;;;28.27;25.57;;;;;;;;;;5123536;27;24948;-59
2021/09/29 09:37:37;;;;;;;27.10;24.60;;;;;;;;;;5121297;27;24470;-59
2021/09/29 09:40:13;;;;;;;28.05;25.55;;;;;;;;;;5121703;27;24438;-61
2021/09/29 09:42:42;;;;;;;29.08;26.35;;;;;;;;;;5121482;27;24404;-59
2021/09/29 09:45:08;;;;;;;26.92;24.42;;;;;;;;;;5124938;27;24832;-59
2021/09/29 09:47:42;;;;;;;21.15;19.25;;;;;;;;;;5123097;27;24421;-60
2021/09/29 09:50:08;;;;;;;18.00;16.40;;;;;;;;;;5123229;27;24442;-60
2021/09/29 09:52:35;;;;;;;22.17;20.07;;;;;;;;;;5121342;27;24401;-59
2021/09/29 09:55:07;;;;;;;21.45;19.45;;;;;;;;;;5122315;27;24866;-60
2021/09/29 09:57:34;;;;;;;20.73;18.92;;;;;;;;;;5119361;27;24421;-60
2021/09/29 09:59:59;;;;;;;20.50;18.60;;;;;;;;;;5124471;27;24969;-60
2021/09/29 10:02:25;;;;;;;20.20;18.40;;;;;;;;;;5124697;27;24377;-60
2021/09/29 10:04:50;;;;;;;18.90;17.20;;;;;;;;;;5120202;27;25010;-60
2021/09/29 10:07:15;;;;;;;16.40;15.00;;;;;;;;;;5118676;27;24404;-60
2021/09/29 10:28:10;;;;;;;17.95;16.42;;;;;;;;;;5123635;27;24478;-60
2021/09/29 10:30:44;;;;;;;17.52;16.02;;;;;;;;;;5122754;27;24392;-60
2021/09/29 10:33:19;;;;;;;16.27;14.87;;;;;;;;;;5123866;27;24460;-60
2021/09/29 10:43:41;;;;;;;17.40;15.93;;;;;;;;;;5124204;27;24424;-59
2021/09/29 10:46:25;;;;;;;15.13;13.82;;;;;;;;;;5119915;27;24448;-60
2021/09/29 10:49:05;;;;;;;14.55;13.25;;;;;;;;;;5117760;27;24397;-60
2021/09/29 10:51:51;;;;;;;15.02;13.63;;;;;;;;;;5120177;27;24754;-61
2021/09/29 11:27:48;;;;;;;5.78;5.30;;;;;;;;;;5109333;27;25020;-59
2021/09/29 11:30:24;;;;;;;5.80;5.40;;;;;;;;;;5127405;27;24443;-59
2021/09/29 11:32:58;;;;;;;5.75;5.35;;;;;;;;;;5121671;27;24966;-58
2021/09/29 11:38:21;;;;;;;4.80;4.50;;;;;;;;;;5125360;27;24449;-60
2021/09/29 11:49:49;;;;;;;3.58;3.38;;;;;;;;;;5103108;27;24618;-60
2021/09/29 12:08:50;;;;;;;3.00;2.80;;;;;;;;;;5114297;27;24430;-59
2021/09/29 12:11:31;;;;;;;3.00;2.80;;;;;;;;;;5117072;27;24564;-59
2021/09/29 12:13:59;;;;;;;3.00;2.80;;;;;;;;;;5117789;27;24432;-60
2021/09/29 12:16:25;;;;;;;2.90;2.70;;;;;;;;;;5124497;27;24450;-60
2021/09/29 12:18:56;;;;;;;2.50;2.40;;;;;;;;;;5118879;27;24573;-64
2021/09/29 12:21:44;;;;;;;2.92;2.72;;;;;;;;;;5122097;27;24436;-59
2021/09/29 12:24:10;;;;;;;3.10;2.90;;;;;;;;;;5117246;27;25214;-61
2021/09/29 12:26:43;;;;;;;2.90;2.70;;;;;;;;;;5115784;27;24501;-58
2021/09/29 12:29:18;;;;;;;2.60;2.40;;;;;;;;;;5118934;27;24458;-61
2021/09/29 12:34:23;;;;;;;2.90;2.70;;;;;;;;;;5118336;27;25035;-59
2021/09/29 12:36:48;;;;;;;3.22;3.03;;;;;;;;;;5117809;27;24633;-60
2021/09/29 12:39:18;;;;;;;3.10;2.90;;;;;;;;;;5117794;27;25055;-58
2021/09/29 12:41:47;;;;;;;3.00;2.80;;;;;;;;;;5114656;27;24465;-60
2021/09/29 12:44:13;;;;;;;2.90;2.70;;;;;;;;;;5117707;27;24451;-60
2021/09/29 12:46:39;;;;;;;2.70;2.50;;;;;;;;;;5123344;27;24859;-60
2021/09/29 12:49:11;;;;;;;2.60;2.40;;;;;;;;;;5121677;27;24792;-60
2021/09/29 12:51:40;;;;;;;3.00;2.80;;;;;;;;;;5122446;27;24425;-62
2021/09/29 12:54:08;;;;;;;2.85;2.65;;;;;;;;;;5124838;27;24995;-58
2021/09/29 12:56:33;;;;;;;2.88;2.67;;;;;;;;;;5092998;27;25023;-59
2021/09/29 12:58:58;;;;;;;3.50;3.30;;;;;;;;;;5120155;27;25202;-59
2021/09/29 13:01:23;;;;;;;3.97;3.67;;;;;;;;;;5113506;27;24509;-59
2021/09/29 13:03:49;;;;;;;4.10;3.80;;;;;;;;;;5122442;27;24490;-60
2021/09/29 13:06:14;;;;;;;3.57;3.37;;;;;;;;;;5115340;27;24402;-60
2021/09/29 13:08:40;;;;;;;3.28;3.00;;;;;;;;;;5123005;27;25018;-60
2021/09/29 13:11:05;;;;;;;3.67;3.47;;;;;;;;;;5121278;27;24824;-60
2021/09/29 13:13:31;;;;;;;3.53;3.33;;;;;;;;;;5119582;27;24468;-61
2021/09/29 13:15:59;;;;;;;2.70;2.60;;;;;;;;;;5122101;27;24533;-60
2021/09/29 13:20:57;;;;;;;2.70;2.50;;;;;;;;;;5123913;27;24776;-61
2021/09/29 13:23:27;;;;;;;3.20;3.00;;;;;;;;;;5125499;27;24747;-61
2021/09/29 13:26:01;;;;;;;2.60;2.42;;;;;;;;;;5123278;27;24413;-61
2021/09/29 13:36:39;;;;;;;3.20;3.00;;;;;;;;;;5123584;27;24811;-60
2021/09/29 13:39:11;;;;;;;2.63;2.43;;;;;;;;;;5120329;27;25234;-59
2021/09/29 13:41:37;;;;;;;2.65;2.45;;;;;;;;;;5120225;27;24413;-60
2021/09/29 13:44:02;;;;;;;2.85;2.65;;;;;;;;;;5120007;27;25121;-61
2021/09/29 13:46:28;;;;;;;2.60;2.40;;;;;;;;;;5123550;27;24405;-61
2021/09/29 13:48:55;;;;;;;2.67;2.47;;;;;;;;;;5121814;27;24408;-61
2021/09/29 13:51:20;;;;;;;2.45;2.25;;;;;;;;;;5122398;27;24393;-61
2021/09/29 13:53:45;;;;;;;2.20;2.10;;;;;;;;;;5118590;27;24482;-61
2021/09/29 13:56:13;;;;;;;2.80;2.60;;;;;;;;;;5118124;27;24416;-61
2021/09/29 13:58:53;;;;;;;2.80;2.60;;;;;;;;;;5120168;27;24964;-61
2021/09/29 14:28:39;;;;;;;2.20;1.70;;;;;;;;;;5121566;27;24528;-61
2021/09/29 14:31:10;;;;;;;1.70;1.60;;;;;;;;;;5118119;27;24428;-62
2021/09/29 14:33:39;;;;;;;2.00;1.80;;;;;;;;;;5119670;27;24453;-66
2021/09/29 14:36:04;;;;;;;1.90;1.80;;;;;;;;;;5123454;27;24445;-74
2021/09/29 14:38:29;;;;;;;1.90;1.80;;;;;;;;;;5121454;27;24481;-60
2021/09/29 14:40:54;;;;;;;1.70;1.52;;;;;;;;;;5121423;27;24983;-60
2021/09/29 14:43:19;;;;;;;1.90;1.60;;;;;;;;;;5119957;27;24932;-60
2021/09/29 14:45:45;;;;;;;1.70;1.60;;;;;;;;;;5118125;27;24461;-60
2021/09/29 14:48:11;;;;;;;1.87;1.77;;;;;;;;;;5123135;27;24818;-60
2021/09/29 14:50:36;;;;;;;2.00;1.80;;;;;;;;;;5121605;27;24490;-60
2021/09/29 14:53:01;;;;;;;2.90;1.60;;;;;;;;;;5123503;27;24397;-60
2021/09/29 14:55:30;;;;;;;1.80;1.70;;;;;;;;;;5123318;27;25013;-60
2021/09/29 14:57:56;;;;;;;1.48;1.38;;;;;;;;;;5100456;28;24428;-60
2021/09/29 15:00:22;;;;;;;1.52;1.42;;;;;;;;;;5117508;27;24450;-61
2021/09/29 15:02:47;;;;;;;1.60;1.50;;;;;;;;;;5121605;27;24397;-61
2021/09/29 15:05:12;;;;;;;1.50;1.40;;;;;;;;;;5122746;27;25444;-61
2021/09/29 15:07:37;;;;;;;1.98;1.88;;;;;;;;;;5123516;27;25065;-60
2021/09/29 15:10:03;;;;;;;1.80;1.70;;;;;;;;;;5117517;27;24404;-59
2021/09/29 15:12:28;;;;;;;1.60;1.50;;;;;;;;;;5119748;28;24446;-59
2021/09/29 15:20:04;;;;;;;3.50;1.77;;;;;;;;;;5118710;28;24491;-60
2021/09/29 15:28:37;;;;;;;1.40;1.30;;;;;;;;;;5122630;28;25071;-59
2021/09/29 15:31:22;;;;;;;3.40;1.60;;;;;;;;;;5121117;28;25392;-61
2021/09/29 15:58:13;;;;;;;1.40;1.20;;;;;;;;;;5119379;28;24404;-60
2021/09/29 16:03:20;;;;;;;1.42;1.33;;;;;;;;;;5104481;28;24759;-59
2021/09/29 16:06:15;;;;;;;1.48;1.38;;;;;;;;;;5104572;28;25232;-60
2021/09/29 16:08:54;;;;;;;1.30;1.20;;;;;;;;;;5104561;28;24920;-60
2021/09/29 16:11:47;;;;;;;1.00;1.00;;;;;;;;;;5104065;28;24396;-60
2021/09/29 16:16:53;;;;;;;1.40;1.20;;;;;;;;;;5104040;27;24488;-59
2021/09/29 16:22:41;;;;;;;1.83;1.67;;;;;;;;;;5082031;28;24543;-60
2021/09/29 16:30:42;;;;;;;1.85;1.75;;;;;;;;;;5106104;28;24703;-60
2021/09/29 16:33:25;;;;;;;1.60;1.50;;;;;;;;;;5105597;28;24524;-60
2021/09/29 16:35:51;;;;;;;1.70;1.60;;;;;;;;;;5114955;27;24815;-60
2021/09/29 16:38:17;;;;;;;1.90;1.70;;;;;;;;;;5123797;27;24945;-60
2021/09/29 16:40:42;;;;;;;1.70;1.60;;;;;;;;;;5120709;27;24400;-60
2021/09/29 16:43:07;;;;;;;2.90;2.20;;;;;;;;;;5120552;27;24450;-60
2021/09/29 16:45:33;;;;;;;2.00;1.90;;;;;;;;;;5123851;27;25053;-60
2021/09/29 16:47:59;;;;;;;2.23;2.13;;;;;;;;;;5126325;27;24499;-60
2021/09/29 16:50:31;;;;;;;2.80;2.10;;;;;;;;;;5125768;27;24795;-60
2021/09/29 16:52:58;;;;;;;2.10;1.90;;;;;;;;;;5125744;27;24996;-60
2021/09/29 16:55:28;;;;;;;2.28;2.08;;;;;;;;;;5120081;27;24468;-60
2021/09/29 16:58:05;;;;;;;2.80;2.20;;;;;;;;;;5101486;28;24397;-60
2021/09/29 17:00:43;;;;;;;3.40;2.03;;;;;;;;;;5105212;28;24466;-60
2021/09/29 17:03:09;;;;;;;2.60;2.40;;;;;;;;;;5104935;28;24996;-60
2021/09/29 17:05:34;;;;;;;2.90;2.60;;;;;;;;;;5103408;28;24397;-60
2021/09/29 17:08:00;;;;;;;2.60;2.40;;;;;;;;;;5120690;27;24469;-60
2021/09/29 17:10:25;;;;;;;2.67;2.47;;;;;;;;;;5119980;27;24933;-60
2021/09/29 17:12:51;;;;;;;2.40;2.20;;;;;;;;;;5119299;27;24416;-60
2021/09/29 17:15:16;;;;;;;2.40;2.20;;;;;;;;;;5123033;27;24520;-60
2021/09/29 17:17:44;;;;;;;2.80;2.60;;;;;;;;;;5115210;27;24545;-60
2021/09/29 17:20:09;;;;;;;4.82;4.43;;;;;;;;;;5118603;27;24416;-61
2021/09/29 17:22:34;;;;;;;4.70;4.20;;;;;;;;;;5112674;27;24413;-60
2021/09/29 17:24:59;;;;;;;3.80;3.40;;;;;;;;;;5124620;27;24415;-60
2021/09/29 17:27:25;;;;;;;3.17;2.90;;;;;;;;;;5124613;27;24982;-60
2021/09/29 17:29:55;;;;;;;3.13;2.93;;;;;;;;;;5119779;27;24392;-60
2021/09/29 17:32:33;;;;;;;2.70;2.50;;;;;;;;;;5122326;27;24963;-60
2021/09/29 17:35:05;;;;;;;2.53;2.33;;;;;;;;;;5124759;27;24451;-60
2021/09/29 17:37:58;;;;;;;2.58;2.38;;;;;;;;;;5125348;27;24377;-60
2021/09/29 17:40:49;;;;;;;2.20;2.10;;;;;;;;;;5123016;27;24488;-60
2021/09/29 17:53:49;;;;;;;2.70;2.50;;;;;;;;;;5107394;27;24432;-60
2021/09/29 17:56:14;;;;;;;2.60;2.40;;;;;;;;;;5108184;27;24409;-60
2021/09/29 17:58:39;;;;;;;2.80;2.60;;;;;;;;;;5122645;27;24424;-60
2021/09/29 18:01:04;;;;;;;3.20;2.70;;;;;;;;;;5120643;27;24767;-60
2021/09/29 18:03:40;;;;;;;3.30;3.00;;;;;;;;;;5118136;27;24495;-63
2021/09/29 18:08:31;;;;;;;3.33;3.03;;;;;;;;;;5109964;27;24715;-60